sensor_id;sensor_type;location;lat;lon;timestamp;P1;durP1;ratioP1;P2;durP2;ratioP2
10092;SDS011;5085;48.092;11.484;2022-11-12T00:02:15;7.07;;;3.92;;
10092;SDS011;5085;48.092;11.484;2022-11-12T00:04:59;8.02;;;4.38;;
10092;SDS011;5085;48.092;11.484;2022-11-12T00:07:44;7.20;;;4.13;;
10092;SDS011;5085;48.092;11.484;2022-11-12T00:10:28;7.72;;;3.90;;
10092;SDS011;5085;48.092;11.484;2022-11-12T00:13:13;7.85;;;3.92;;
10092;SDS011;5085;48.092;11.484;2022-11-12T00:15:57;8.40;;;3.95;;
10092;SDS011;5085;48.092;11.484;2022-11-12T00:18:42;6.50;;;3.30;;
10092;SDS011;5085;48.092;11.484;2022-11-12T00:21:26;7.80;;;4.07;;
10092;SDS011;5085;48.092;11.484;2022-11-12T00:24:11;7.63;;;3.75;;
10092;SDS011;5085;48.092;11.484;2022-11-12T00:26:55;8.32;;;3.80;;
10092;SDS011;5085;48.092;11.484;2022-11-12T00:29:40;5.45;;;3.35;;
10092;SDS011;5085;48.092;11.484;2022-11-12T00:32:24;6.20;;;3.28;;
10092;SDS011;5085;48.092;11.484;2022-11-12T00:35:09;7.90;;;3.75;;
10092;SDS011;5085;48.092;11.484;2022-11-12T00:37:55;6.28;;;3.30;;
10092;SDS011;5085;48.092;11.484;2022-11-12T00:40:40;5.65;;;3.40;;
10092;SDS011;5085;48.092;11.484;2022-11-12T00:43:26;8.98;;;3.40;;
10092;SDS011;5085;48.092;11.484;2022-11-12T00:46:11;8.65;;;3.78;;
10092;SDS011;5085;48.092;11.484;2022-11-12T00:48:55;8.07;;;3.70;;
10092;SDS011;5085;48.092;11.484;2022-11-12T00:51:40;7.32;;;3.60;;
10092;SDS011;5085;48.092;11.484;2022-11-12T00:54:25;5.80;;;3.38;;
10092;SDS011;5085;48.092;11.484;2022-11-12T00:57:10;8.20;;;4.03;;
10092;SDS011;5085;48.092;11.484;2022-11-12T00:59:54;8.50;;;4.68;;
10092;SDS011;5085;48.092;11.484;2022-11-12T01:02:39;9.68;;;4.03;;
10092;SDS011;5085;48.092;11.484;2022-11-12T01:08:08;9.35;;;3.25;;
10092;SDS011;5085;48.092;11.484;2022-11-12T01:10:53;6.18;;;3.00;;
10092;SDS011;5085;48.092;11.484;2022-11-12T01:13:39;7.30;;;2.80;;
10092;SDS011;5085;48.092;11.484;2022-11-12T01:16:25;9.82;;;3.42;;
10092;SDS011;5085;48.092;11.484;2022-11-12T01:19:11;7.53;;;3.42;;
10092;SDS011;5085;48.092;11.484;2022-11-12T01:21:57;5.45;;;2.97;;
10092;SDS011;5085;48.092;11.484;2022-11-12T01:24:41;5.45;;;3.05;;
10092;SDS011;5085;48.092;11.484;2022-11-12T01:27:26;6.10;;;3.15;;
10092;SDS011;5085;48.092;11.484;2022-11-12T01:30:10;5.72;;;2.95;;
10092;SDS011;5085;48.092;11.484;2022-11-12T01:32:55;4.45;;;2.63;;
10092;SDS011;5085;48.092;11.484;2022-11-12T01:35:40;5.22;;;2.78;;
10092;SDS011;5085;48.092;11.484;2022-11-12T01:38:24;4.35;;;2.10;;
10092;SDS011;5085;48.092;11.484;2022-11-12T01:41:12;5.97;;;3.05;;
10092;SDS011;5085;48.092;11.484;2022-11-12T01:44:20;6.93;;;2.35;;
10092;SDS011;5085;48.092;11.484;2022-11-12T01:47:20;6.47;;;3.58;;
10092;SDS011;5085;48.092;11.484;2022-11-12T01:53:15;5.32;;;3.15;;
10092;SDS011;5085;48.092;11.484;2022-11-12T01:55:59;7.20;;;3.45;;
10092;SDS011;5085;48.092;11.484;2022-11-12T01:58:50;7.15;;;3.47;;
10092;SDS011;5085;48.092;11.484;2022-11-12T02:01:39;6.00;;;3.00;;
10092;SDS011;5085;48.092;11.484;2022-11-12T02:04:24;8.93;;;3.50;;
10092;SDS011;5085;48.092;11.484;2022-11-12T02:07:10;4.43;;;2.85;;
10092;SDS011;5085;48.092;11.484;2022-11-12T02:09:55;4.18;;;2.50;;
10092;SDS011;5085;48.092;11.484;2022-11-12T02:12:43;4.70;;;2.85;;
10092;SDS011;5085;48.092;11.484;2022-11-12T02:15:47;5.85;;;2.90;;
10092;SDS011;5085;48.092;11.484;2022-11-12T02:18:31;5.20;;;3.67;;
10092;SDS011;5085;48.092;11.484;2022-11-12T02:24:05;5.40;;;2.78;;
10092;SDS011;5085;48.092;11.484;2022-11-12T02:26:51;5.10;;;2.75;;
10092;SDS011;5085;48.092;11.484;2022-11-12T02:32:33;9.75;;;3.15;;
10092;SDS011;5085;48.092;11.484;2022-11-12T02:35:17;5.55;;;3.30;;
10092;SDS011;5085;48.092;11.484;2022-11-12T02:38:02;5.85;;;2.65;;
10092;SDS011;5085;48.092;11.484;2022-11-12T02:40:47;5.05;;;2.72;;
10092;SDS011;5085;48.092;11.484;2022-11-12T02:43:32;5.03;;;2.65;;
10092;SDS011;5085;48.092;11.484;2022-11-12T02:46:17;6.72;;;3.35;;
10092;SDS011;5085;48.092;11.484;2022-11-12T02:49:02;6.70;;;3.53;;
10092;SDS011;5085;48.092;11.484;2022-11-12T02:51:47;8.02;;;3.40;;
10092;SDS011;5085;48.092;11.484;2022-11-12T02:54:31;7.10;;;3.40;;
10092;SDS011;5085;48.092;11.484;2022-11-12T02:57:16;6.10;;;3.45;;
10092;SDS011;5085;48.092;11.484;2022-11-12T03:00:02;6.07;;;3.47;;
10092;SDS011;5085;48.092;11.484;2022-11-12T03:02:48;7.40;;;3.85;;
10092;SDS011;5085;48.092;11.484;2022-11-12T03:05:44;6.97;;;3.58;;
10092;SDS011;5085;48.092;11.484;2022-11-12T03:08:36;5.60;;;3.60;;
10092;SDS011;5085;48.092;11.484;2022-11-12T03:11:21;6.38;;;3.70;;
10092;SDS011;5085;48.092;11.484;2022-11-12T03:14:05;6.32;;;3.28;;
10092;SDS011;5085;48.092;11.484;2022-11-12T03:16:50;5.88;;;3.53;;
10092;SDS011;5085;48.092;11.484;2022-11-12T03:19:35;6.13;;;3.78;;
10092;SDS011;5085;48.092;11.484;2022-11-12T03:22:19;6.82;;;3.90;;
10092;SDS011;5085;48.092;11.484;2022-11-12T03:27:54;5.10;;;3.45;;
10092;SDS011;5085;48.092;11.484;2022-11-12T03:30:41;4.57;;;3.22;;
10092;SDS011;5085;48.092;11.484;2022-11-12T03:33:26;5.43;;;3.17;;
10092;SDS011;5085;48.092;11.484;2022-11-12T03:36:11;7.28;;;3.47;;
10092;SDS011;5085;48.092;11.484;2022-11-12T03:38:56;6.40;;;4.07;;
10092;SDS011;5085;48.092;11.484;2022-11-12T03:47:09;4.90;;;2.65;;
10092;SDS011;5085;48.092;11.484;2022-11-12T03:52:37;4.47;;;2.60;;
10092;SDS011;5085;48.092;11.484;2022-11-12T03:55:23;6.95;;;3.88;;
10092;SDS011;5085;48.092;11.484;2022-11-12T03:58:09;7.80;;;3.25;;
10092;SDS011;5085;48.092;11.484;2022-11-12T04:00:53;5.50;;;2.90;;
10092;SDS011;5085;48.092;11.484;2022-11-12T04:06:22;4.80;;;2.60;;
10092;SDS011;5085;48.092;11.484;2022-11-12T04:09:25;4.28;;;2.45;;
10092;SDS011;5085;48.092;11.484;2022-11-12T04:12:10;5.22;;;2.38;;
10092;SDS011;5085;48.092;11.484;2022-11-12T04:15:13;9.93;;;2.67;;
10092;SDS011;5085;48.092;11.484;2022-11-12T04:21:01;4.63;;;2.90;;
10092;SDS011;5085;48.092;11.484;2022-11-12T04:24:05;5.85;;;3.20;;
10092;SDS011;5085;48.092;11.484;2022-11-12T04:26:50;4.22;;;2.80;;
10092;SDS011;5085;48.092;11.484;2022-11-12T04:29:34;7.10;;;3.40;;
10092;SDS011;5085;48.092;11.484;2022-11-12T04:32:38;5.30;;;2.83;;
10092;SDS011;5085;48.092;11.484;2022-11-12T04:35:25;5.20;;;2.92;;
10092;SDS011;5085;48.092;11.484;2022-11-12T04:38:10;4.90;;;2.90;;
10092;SDS011;5085;48.092;11.484;2022-11-12T04:40:54;5.40;;;2.63;;
10092;SDS011;5085;48.092;11.484;2022-11-12T04:43:57;4.45;;;2.67;;
10092;SDS011;5085;48.092;11.484;2022-11-12T04:47:01;4.32;;;2.67;;
10092;SDS011;5085;48.092;11.484;2022-11-12T04:49:46;4.80;;;2.75;;
10092;SDS011;5085;48.092;11.484;2022-11-12T04:52:30;6.65;;;3.15;;
10092;SDS011;5085;48.092;11.484;2022-11-12T04:55:15;6.22;;;3.47;;
10092;SDS011;5085;48.092;11.484;2022-11-12T05:00:44;5.45;;;2.92;;
10092;SDS011;5085;48.092;11.484;2022-11-12T05:03:28;7.20;;;3.35;;
10092;SDS011;5085;48.092;11.484;2022-11-12T05:09:20;4.88;;;2.75;;
10092;SDS011;5085;48.092;11.484;2022-11-12T05:12:06;6.55;;;3.90;;
10092;SDS011;5085;48.092;11.484;2022-11-12T05:14:52;9.75;;;3.80;;
10092;SDS011;5085;48.092;11.484;2022-11-12T05:20:27;5.88;;;3.08;;
10092;SDS011;5085;48.092;11.484;2022-11-12T05:23:12;6.97;;;3.60;;
10092;SDS011;5085;48.092;11.484;2022-11-12T05:25:56;6.85;;;3.65;;
10092;SDS011;5085;48.092;11.484;2022-11-12T05:28:41;5.15;;;2.88;;
10092;SDS011;5085;48.092;11.484;2022-11-12T05:31:25;6.45;;;3.55;;
10092;SDS011;5085;48.092;11.484;2022-11-12T05:34:10;5.15;;;2.97;;
10092;SDS011;5085;48.092;11.484;2022-11-12T05:36:55;7.95;;;3.80;;
10092;SDS011;5085;48.092;11.484;2022-11-12T05:39:39;7.07;;;3.15;;
10092;SDS011;5085;48.092;11.484;2022-11-12T05:42:24;4.70;;;2.58;;
10092;SDS011;5085;48.092;11.484;2022-11-12T05:45:08;5.55;;;2.78;;
10092;SDS011;5085;48.092;11.484;2022-11-12T05:50:37;4.28;;;2.30;;
10092;SDS011;5085;48.092;11.484;2022-11-12T05:53:22;4.05;;;2.60;;
10092;SDS011;5085;48.092;11.484;2022-11-12T05:56:06;4.25;;;2.30;;
10092;SDS011;5085;48.092;11.484;2022-11-12T05:58:52;5.35;;;2.67;;
10092;SDS011;5085;48.092;11.484;2022-11-12T06:01:36;5.93;;;2.92;;
10092;SDS011;5085;48.092;11.484;2022-11-12T06:04:27;5.72;;;2.75;;
10092;SDS011;5085;48.092;11.484;2022-11-12T06:07:11;3.70;;;2.55;;
10092;SDS011;5085;48.092;11.484;2022-11-12T06:09:56;4.88;;;2.75;;
10092;SDS011;5085;48.092;11.484;2022-11-12T06:12:41;3.95;;;2.40;;
10092;SDS011;5085;48.092;11.484;2022-11-12T06:18:10;7.07;;;2.97;;
10092;SDS011;5085;48.092;11.484;2022-11-12T06:21:04;5.85;;;2.65;;
10092;SDS011;5085;48.092;11.484;2022-11-12T06:24:03;5.10;;;2.40;;
10092;SDS011;5085;48.092;11.484;2022-11-12T06:26:48;3.33;;;2.00;;
10092;SDS011;5085;48.092;11.484;2022-11-12T06:32:16;4.45;;;2.55;;
10092;SDS011;5085;48.092;11.484;2022-11-12T06:35:01;5.15;;;2.47;;
10092;SDS011;5085;48.092;11.484;2022-11-12T06:40:30;3.13;;;1.75;;
10092;SDS011;5085;48.092;11.484;2022-11-12T06:43:15;4.10;;;2.35;;
10092;SDS011;5085;48.092;11.484;2022-11-12T06:46:00;3.95;;;2.15;;
10092;SDS011;5085;48.092;11.484;2022-11-12T06:48:54;6.13;;;3.13;;
10092;SDS011;5085;48.092;11.484;2022-11-12T06:51:38;4.15;;;2.35;;
10092;SDS011;5085;48.092;11.484;2022-11-12T06:57:08;4.03;;;2.33;;
10092;SDS011;5085;48.092;11.484;2022-11-12T06:59:52;4.45;;;2.42;;
10092;SDS011;5085;48.092;11.484;2022-11-12T07:02:37;4.43;;;2.58;;
10092;SDS011;5085;48.092;11.484;2022-11-12T07:08:06;4.25;;;1.98;;
10092;SDS011;5085;48.092;11.484;2022-11-12T07:10:54;3.88;;;2.05;;
10092;SDS011;5085;48.092;11.484;2022-11-12T07:13:40;6.03;;;3.03;;
10092;SDS011;5085;48.092;11.484;2022-11-12T07:16:25;4.28;;;2.47;;
10092;SDS011;5085;48.092;11.484;2022-11-12T07:19:10;5.43;;;2.53;;
10092;SDS011;5085;48.092;11.484;2022-11-12T07:24:38;3.30;;;2.05;;
10092;SDS011;5085;48.092;11.484;2022-11-12T07:27:23;4.18;;;2.47;;
10092;SDS011;5085;48.092;11.484;2022-11-12T07:32:51;4.43;;;2.40;;
10092;SDS011;5085;48.092;11.484;2022-11-12T07:38:20;4.25;;;2.83;;
10092;SDS011;5085;48.092;11.484;2022-11-12T07:41:17;4.97;;;2.33;;
10092;SDS011;5085;48.092;11.484;2022-11-12T07:44:06;5.38;;;2.65;;
10092;SDS011;5085;48.092;11.484;2022-11-12T07:46:50;4.35;;;2.40;;
10092;SDS011;5085;48.092;11.484;2022-11-12T07:49:35;4.57;;;2.50;;
10092;SDS011;5085;48.092;11.484;2022-11-12T07:52:19;4.18;;;2.53;;
10092;SDS011;5085;48.092;11.484;2022-11-12T07:55:04;4.88;;;3.03;;
10092;SDS011;5085;48.092;11.484;2022-11-12T07:57:49;5.25;;;3.33;;
10092;SDS011;5085;48.092;11.484;2022-11-12T08:00:34;4.60;;;2.45;;
10092;SDS011;5085;48.092;11.484;2022-11-12T08:03:18;4.18;;;2.47;;
10092;SDS011;5085;48.092;11.484;2022-11-12T08:06:03;5.10;;;2.75;;
10092;SDS011;5085;48.092;11.484;2022-11-12T08:08:52;4.50;;;2.60;;
10092;SDS011;5085;48.092;11.484;2022-11-12T08:11:40;4.55;;;2.65;;
10092;SDS011;5085;48.092;11.484;2022-11-12T08:14:25;5.15;;;3.17;;
10092;SDS011;5085;48.092;11.484;2022-11-12T08:17:09;5.07;;;2.53;;
10092;SDS011;5085;48.092;11.484;2022-11-12T08:19:54;5.32;;;2.97;;
10092;SDS011;5085;48.092;11.484;2022-11-12T08:22:39;4.63;;;2.83;;
10092;SDS011;5085;48.092;11.484;2022-11-12T08:25:23;4.43;;;2.45;;
10092;SDS011;5085;48.092;11.484;2022-11-12T08:28:08;5.65;;;2.60;;
10092;SDS011;5085;48.092;11.484;2022-11-12T08:30:53;4.55;;;2.40;;
10092;SDS011;5085;48.092;11.484;2022-11-12T08:33:38;5.00;;;2.45;;
10092;SDS011;5085;48.092;11.484;2022-11-12T08:36:23;4.15;;;2.33;;
10092;SDS011;5085;48.092;11.484;2022-11-12T08:39:07;3.70;;;2.00;;
10092;SDS011;5085;48.092;11.484;2022-11-12T08:41:52;6.25;;;2.17;;
10092;SDS011;5085;48.092;11.484;2022-11-12T08:44:36;5.38;;;2.38;;
10092;SDS011;5085;48.092;11.484;2022-11-12T08:47:21;4.50;;;2.20;;
10092;SDS011;5085;48.092;11.484;2022-11-12T08:50:06;4.22;;;2.50;;
10092;SDS011;5085;48.092;11.484;2022-11-12T08:52:51;7.03;;;2.50;;
10092;SDS011;5085;48.092;11.484;2022-11-12T08:55:35;4.05;;;2.08;;
10092;SDS011;5085;48.092;11.484;2022-11-12T08:58:20;3.92;;;2.60;;
10092;SDS011;5085;48.092;11.484;2022-11-12T09:01:06;3.67;;;2.05;;
10092;SDS011;5085;48.092;11.484;2022-11-12T09:03:51;4.50;;;1.98;;
10092;SDS011;5085;48.092;11.484;2022-11-12T09:06:36;5.05;;;2.92;;
10092;SDS011;5085;48.092;11.484;2022-11-12T09:09:20;4.50;;;2.55;;
10092;SDS011;5085;48.092;11.484;2022-11-12T09:12:05;5.57;;;2.80;;
10092;SDS011;5085;48.092;11.484;2022-11-12T09:14:50;4.45;;;2.47;;
10092;SDS011;5085;48.092;11.484;2022-11-12T09:17:34;3.58;;;2.15;;
10092;SDS011;5085;48.092;11.484;2022-11-12T09:20:19;4.53;;;2.63;;
10092;SDS011;5085;48.092;11.484;2022-11-12T09:23:05;3.97;;;2.13;;
10092;SDS011;5085;48.092;11.484;2022-11-12T09:25:53;4.60;;;2.33;;
10092;SDS011;5085;48.092;11.484;2022-11-12T09:28:37;4.05;;;2.40;;
10092;SDS011;5085;48.092;11.484;2022-11-12T09:31:22;3.10;;;2.13;;
10092;SDS011;5085;48.092;11.484;2022-11-12T09:34:09;7.85;;;2.33;;
10092;SDS011;5085;48.092;11.484;2022-11-12T09:36:53;27.35;;;3.92;;
10092;SDS011;5085;48.092;11.484;2022-11-12T09:39:37;3.55;;;2.10;;
10092;SDS011;5085;48.092;11.484;2022-11-12T09:42:22;23.60;;;5.47;;
10092;SDS011;5085;48.092;11.484;2022-11-12T09:45:28;4.93;;;2.33;;
10092;SDS011;5085;48.092;11.484;2022-11-12T09:48:14;5.32;;;2.53;;
10092;SDS011;5085;48.092;11.484;2022-11-12T09:51:04;3.35;;;2.03;;
10092;SDS011;5085;48.092;11.484;2022-11-12T09:53:56;4.03;;;2.38;;
10092;SDS011;5085;48.092;11.484;2022-11-12T09:56:42;4.25;;;2.40;;
10092;SDS011;5085;48.092;11.484;2022-11-12T09:59:28;5.60;;;2.90;;
10092;SDS011;5085;48.092;11.484;2022-11-12T10:21:34;4.15;;;2.67;;
10092;SDS011;5085;48.092;11.484;2022-11-12T10:24:25;4.30;;;2.67;;
10092;SDS011;5085;48.092;11.484;2022-11-12T10:27:17;4.72;;;2.47;;
10092;SDS011;5085;48.092;11.484;2022-11-12T10:30:04;5.60;;;2.83;;
10092;SDS011;5085;48.092;11.484;2022-11-12T10:32:53;4.40;;;2.67;;
10092;SDS011;5085;48.092;11.484;2022-11-12T10:35:38;3.95;;;2.58;;
10092;SDS011;5085;48.092;11.484;2022-11-12T10:38:24;3.58;;;2.47;;
10092;SDS011;5085;48.092;11.484;2022-11-12T10:41:17;5.28;;;2.83;;
10092;SDS011;5085;48.092;11.484;2022-11-12T10:44:09;3.42;;;2.15;;
10092;SDS011;5085;48.092;11.484;2022-11-12T10:47:17;7.20;;;2.90;;
10092;SDS011;5085;48.092;11.484;2022-11-12T10:53:10;4.25;;;2.83;;
10092;SDS011;5085;48.092;11.484;2022-11-12T10:55:59;4.80;;;3.20;;
10092;SDS011;5085;48.092;11.484;2022-11-12T10:59:09;4.72;;;3.00;;
10092;SDS011;5085;48.092;11.484;2022-11-12T11:01:58;4.45;;;3.17;;
10092;SDS011;5085;48.092;11.484;2022-11-12T11:04:43;3.97;;;2.65;;
10092;SDS011;5085;48.092;11.484;2022-11-12T11:07:28;7.43;;;3.00;;
10092;SDS011;5085;48.092;11.484;2022-11-12T11:16:02;5.28;;;2.90;;
10092;SDS011;5085;48.092;11.484;2022-11-12T11:18:49;4.05;;;2.85;;
10092;SDS011;5085;48.092;11.484;2022-11-12T11:24:36;4.03;;;2.80;;
10092;SDS011;5085;48.092;11.484;2022-11-12T11:27:34;4.78;;;2.97;;
10092;SDS011;5085;48.092;11.484;2022-11-12T11:30:24;4.22;;;2.95;;
10092;SDS011;5085;48.092;11.484;2022-11-12T11:33:27;4.47;;;2.92;;
10092;SDS011;5085;48.092;11.484;2022-11-12T11:36:51;4.32;;;2.90;;
10092;SDS011;5085;48.092;11.484;2022-11-12T11:49:21;4.97;;;3.17;;
10092;SDS011;5085;48.092;11.484;2022-11-12T11:52:36;4.18;;;2.85;;
10092;SDS011;5085;48.092;11.484;2022-11-12T11:56:02;5.70;;;3.58;;
10092;SDS011;5085;48.092;11.484;2022-11-12T12:02:47;10.38;;;3.53;;
10092;SDS011;5085;48.092;11.484;2022-11-12T12:05:43;6.85;;;3.35;;
10092;SDS011;5085;48.092;11.484;2022-11-12T12:11:57;6.30;;;4.25;;
10092;SDS011;5085;48.092;11.484;2022-11-12T12:20:33;8.23;;;4.05;;
10092;SDS011;5085;48.092;11.484;2022-11-12T12:26:27;8.52;;;5.32;;
10092;SDS011;5085;48.092;11.484;2022-11-12T12:36:01;9.60;;;5.50;;
10092;SDS011;5085;48.092;11.484;2022-11-12T12:38:50;8.75;;;4.88;;
10092;SDS011;5085;48.092;11.484;2022-11-12T12:41:38;9.50;;;5.30;;
10092;SDS011;5085;48.092;11.484;2022-11-12T12:44:30;8.23;;;5.15;;
10092;SDS011;5085;48.092;11.484;2022-11-12T12:47:42;10.43;;;5.97;;
10092;SDS011;5085;48.092;11.484;2022-11-12T12:50:28;10.68;;;5.63;;
10092;SDS011;5085;48.092;11.484;2022-11-12T12:53:14;9.13;;;5.90;;
10092;SDS011;5085;48.092;11.484;2022-11-12T12:56:02;10.38;;;6.47;;
10092;SDS011;5085;48.092;11.484;2022-11-12T12:59:16;9.20;;;6.65;;
10092;SDS011;5085;48.092;11.484;2022-11-12T13:02:03;11.57;;;6.82;;
10092;SDS011;5085;48.092;11.484;2022-11-12T13:05:03;12.75;;;6.97;;
10092;SDS011;5085;48.092;11.484;2022-11-12T13:07:48;11.13;;;6.35;;
10092;SDS011;5085;48.092;11.484;2022-11-12T13:13:34;11.27;;;7.60;;
10092;SDS011;5085;48.092;11.484;2022-11-12T13:33:32;12.60;;;7.25;;
10092;SDS011;5085;48.092;11.484;2022-11-12T13:36:25;11.45;;;7.03;;
10092;SDS011;5085;48.092;11.484;2022-11-12T13:39:16;13.90;;;7.25;;
10092;SDS011;5085;48.092;11.484;2022-11-12T13:42:12;12.48;;;7.43;;
10092;SDS011;5085;48.092;11.484;2022-11-12T13:45:19;10.75;;;6.97;;
10092;SDS011;5085;48.092;11.484;2022-11-12T13:48:07;12.73;;;7.38;;
10092;SDS011;5085;48.092;11.484;2022-11-12T13:50:57;10.50;;;6.90;;
10092;SDS011;5085;48.092;11.484;2022-11-12T13:53:46;12.60;;;6.93;;
10092;SDS011;5085;48.092;11.484;2022-11-12T13:56:32;9.95;;;6.43;;
10092;SDS011;5085;48.092;11.484;2022-11-12T13:59:22;12.10;;;7.00;;
10092;SDS011;5085;48.092;11.484;2022-11-12T14:02:16;10.95;;;6.57;;
10092;SDS011;5085;48.092;11.484;2022-11-12T14:05:13;9.93;;;6.22;;
10092;SDS011;5085;48.092;11.484;2022-11-12T14:08:07;10.35;;;6.38;;
10092;SDS011;5085;48.092;11.484;2022-11-12T14:17:55;12.60;;;6.57;;
10092;SDS011;5085;48.092;11.484;2022-11-12T14:20:46;11.55;;;6.63;;
10092;SDS011;5085;48.092;11.484;2022-11-12T14:23:32;10.50;;;6.63;;
10092;SDS011;5085;48.092;11.484;2022-11-12T14:26:34;11.20;;;6.80;;
10092;SDS011;5085;48.092;11.484;2022-11-12T14:29:21;11.43;;;6.55;;
10092;SDS011;5085;48.092;11.484;2022-11-12T14:32:07;10.07;;;6.18;;
10092;SDS011;5085;48.092;11.484;2022-11-12T14:34:54;10.23;;;5.90;;
10092;SDS011;5085;48.092;11.484;2022-11-12T14:37:38;14.65;;;7.05;;
10092;SDS011;5085;48.092;11.484;2022-11-12T14:40:24;12.68;;;6.70;;
10092;SDS011;5085;48.092;11.484;2022-11-12T14:43:43;11.13;;;6.53;;
10092;SDS011;5085;48.092;11.484;2022-11-12T14:52:28;13.25;;;7.15;;
10092;SDS011;5085;48.092;11.484;2022-11-12T14:55:19;16.13;;;8.05;;
10092;SDS011;5085;48.092;11.484;2022-11-12T14:58:14;11.98;;;7.18;;
10092;SDS011;5085;48.092;11.484;2022-11-12T15:01:16;12.63;;;6.80;;
10092;SDS011;5085;48.092;11.484;2022-11-12T15:06:54;11.43;;;7.18;;
10092;SDS011;5085;48.092;11.484;2022-11-12T15:09:39;13.63;;;7.55;;
10092;SDS011;5085;48.092;11.484;2022-11-12T15:12:27;10.73;;;6.75;;
10092;SDS011;5085;48.092;11.484;2022-11-12T15:15:18;11.63;;;7.03;;
10092;SDS011;5085;48.092;11.484;2022-11-12T15:18:14;11.70;;;6.60;;
10092;SDS011;5085;48.092;11.484;2022-11-12T15:26:56;12.82;;;7.50;;
10092;SDS011;5085;48.092;11.484;2022-11-12T15:29:42;11.65;;;6.53;;
10092;SDS011;5085;48.092;11.484;2022-11-12T15:32:29;9.63;;;6.18;;
10092;SDS011;5085;48.092;11.484;2022-11-12T15:38:11;11.23;;;6.50;;
10092;SDS011;5085;48.092;11.484;2022-11-12T15:41:03;11.75;;;6.65;;
10092;SDS011;5085;48.092;11.484;2022-11-12T15:43:47;11.05;;;6.65;;
10092;SDS011;5085;48.092;11.484;2022-11-12T15:46:32;12.65;;;7.40;;
10092;SDS011;5085;48.092;11.484;2022-11-12T15:49:16;12.38;;;6.95;;
10092;SDS011;5085;48.092;11.484;2022-11-12T15:52:01;12.45;;;7.30;;
10092;SDS011;5085;48.092;11.484;2022-11-12T15:54:45;11.43;;;6.57;;
10092;SDS011;5085;48.092;11.484;2022-11-12T15:57:30;12.80;;;7.72;;
10092;SDS011;5085;48.092;11.484;2022-11-12T16:00:21;12.00;;;6.88;;
10092;SDS011;5085;48.092;11.484;2022-11-12T16:05:57;10.43;;;6.43;;
10092;SDS011;5085;48.092;11.484;2022-11-12T16:08:42;9.93;;;6.50;;
10092;SDS011;5085;48.092;11.484;2022-11-12T16:11:27;12.75;;;7.30;;
10092;SDS011;5085;48.092;11.484;2022-11-12T16:14:20;11.98;;;6.85;;
10092;SDS011;5085;48.092;11.484;2022-11-12T16:17:07;14.68;;;7.45;;
10092;SDS011;5085;48.092;11.484;2022-11-12T16:19:56;9.20;;;6.22;;
10092;SDS011;5085;48.092;11.484;2022-11-12T16:22:40;13.73;;;6.85;;
10092;SDS011;5085;48.092;11.484;2022-11-12T16:25:28;15.15;;;6.88;;
10092;SDS011;5085;48.092;11.484;2022-11-12T16:28:15;10.85;;;6.25;;
10092;SDS011;5085;48.092;11.484;2022-11-12T16:31:01;12.98;;;7.60;;
10092;SDS011;5085;48.092;11.484;2022-11-12T16:33:46;14.00;;;7.25;;
10092;SDS011;5085;48.092;11.484;2022-11-12T16:36:30;11.57;;;7.03;;
10092;SDS011;5085;48.092;11.484;2022-11-12T16:39:15;16.65;;;7.78;;
10092;SDS011;5085;48.092;11.484;2022-11-12T16:42:00;13.48;;;7.40;;
10092;SDS011;5085;48.092;11.484;2022-11-12T16:44:45;11.88;;;7.72;;
10092;SDS011;5085;48.092;11.484;2022-11-12T16:47:29;14.18;;;7.75;;
10092;SDS011;5085;48.092;11.484;2022-11-12T16:50:15;15.52;;;7.82;;
10092;SDS011;5085;48.092;11.484;2022-11-12T16:53:04;17.40;;;8.70;;
10092;SDS011;5085;48.092;11.484;2022-11-12T16:55:49;15.13;;;7.88;;
10092;SDS011;5085;48.092;11.484;2022-11-12T16:58:33;14.95;;;8.25;;
10092;SDS011;5085;48.092;11.484;2022-11-12T17:01:21;14.82;;;7.90;;
10092;SDS011;5085;48.092;11.484;2022-11-12T17:04:08;15.55;;;8.73;;
10092;SDS011;5085;48.092;11.484;2022-11-12T17:06:53;15.68;;;8.82;;
10092;SDS011;5085;48.092;11.484;2022-11-12T17:09:37;14.88;;;8.98;;
10092;SDS011;5085;48.092;11.484;2022-11-12T17:12:21;16.40;;;7.95;;
10092;SDS011;5085;48.092;11.484;2022-11-12T17:15:06;17.58;;;8.75;;
10092;SDS011;5085;48.092;11.484;2022-11-12T17:17:52;13.52;;;7.85;;
10092;SDS011;5085;48.092;11.484;2022-11-12T17:20:37;18.02;;;9.50;;
10092;SDS011;5085;48.092;11.484;2022-11-12T17:23:22;17.00;;;7.90;;
10092;SDS011;5085;48.092;11.484;2022-11-12T17:26:08;14.27;;;7.85;;
10092;SDS011;5085;48.092;11.484;2022-11-12T17:28:55;12.32;;;7.13;;
10092;SDS011;5085;48.092;11.484;2022-11-12T17:31:45;17.17;;;6.45;;
10092;SDS011;5085;48.092;11.484;2022-11-12T17:34:31;11.13;;;6.53;;
10092;SDS011;5085;48.092;11.484;2022-11-12T17:37:15;13.02;;;6.35;;
10092;SDS011;5085;48.092;11.484;2022-11-12T17:40:00;16.08;;;6.72;;
10092;SDS011;5085;48.092;11.484;2022-11-12T17:42:44;11.45;;;6.30;;
10092;SDS011;5085;48.092;11.484;2022-11-12T17:45:29;12.50;;;7.43;;
10092;SDS011;5085;48.092;11.484;2022-11-12T17:48:13;14.90;;;6.30;;
10092;SDS011;5085;48.092;11.484;2022-11-12T17:51:13;18.58;;;6.78;;
10092;SDS011;5085;48.092;11.484;2022-11-12T17:53:59;15.15;;;6.47;;
10092;SDS011;5085;48.092;11.484;2022-11-12T17:56:44;16.48;;;6.28;;
10092;SDS011;5085;48.092;11.484;2022-11-12T17:59:28;13.38;;;6.07;;
10092;SDS011;5085;48.092;11.484;2022-11-12T18:02:13;12.75;;;5.82;;
10092;SDS011;5085;48.092;11.484;2022-11-12T18:04:57;12.95;;;6.03;;
10092;SDS011;5085;48.092;11.484;2022-11-12T18:07:42;15.18;;;6.53;;
10092;SDS011;5085;48.092;11.484;2022-11-12T18:10:27;12.52;;;6.38;;
10092;SDS011;5085;48.092;11.484;2022-11-12T18:13:12;15.93;;;7.05;;
10092;SDS011;5085;48.092;11.484;2022-11-12T18:15:57;24.05;;;6.80;;
10092;SDS011;5085;48.092;11.484;2022-11-12T18:18:41;22.88;;;6.53;;
10092;SDS011;5085;48.092;11.484;2022-11-12T18:21:27;12.73;;;5.68;;
10092;SDS011;5085;48.092;11.484;2022-11-12T18:24:12;15.07;;;6.15;;
10092;SDS011;5085;48.092;11.484;2022-11-12T18:26:58;11.20;;;5.75;;
10092;SDS011;5085;48.092;11.484;2022-11-12T18:29:42;14.25;;;7.10;;
10092;SDS011;5085;48.092;11.484;2022-11-12T18:32:28;11.13;;;6.25;;
10092;SDS011;5085;48.092;11.484;2022-11-12T18:35:13;14.13;;;7.03;;
10092;SDS011;5085;48.092;11.484;2022-11-12T18:37:58;11.02;;;5.35;;
10092;SDS011;5085;48.092;11.484;2022-11-12T18:40:42;14.00;;;7.28;;
10092;SDS011;5085;48.092;11.484;2022-11-12T18:43:27;11.25;;;7.35;;
10092;SDS011;5085;48.092;11.484;2022-11-12T18:46:11;13.70;;;7.05;;
10092;SDS011;5085;48.092;11.484;2022-11-12T18:48:56;27.63;;;6.00;;
10092;SDS011;5085;48.092;11.484;2022-11-12T18:51:40;10.77;;;5.93;;
10092;SDS011;5085;48.092;11.484;2022-11-12T18:54:25;8.82;;;5.40;;
10092;SDS011;5085;48.092;11.484;2022-11-12T18:57:09;11.43;;;6.20;;
10092;SDS011;5085;48.092;11.484;2022-11-12T18:59:54;13.45;;;5.55;;
10092;SDS011;5085;48.092;11.484;2022-11-12T19:02:39;8.70;;;5.20;;
10092;SDS011;5085;48.092;11.484;2022-11-12T19:05:23;17.00;;;5.80;;
10092;SDS011;5085;48.092;11.484;2022-11-12T19:08:08;19.98;;;5.28;;
10092;SDS011;5085;48.092;11.484;2022-11-12T19:10:59;9.80;;;5.65;;
10092;SDS011;5085;48.092;11.484;2022-11-12T19:13:48;9.43;;;5.38;;
10092;SDS011;5085;48.092;11.484;2022-11-12T19:16:38;8.63;;;5.28;;
10092;SDS011;5085;48.092;11.484;2022-11-12T19:19:25;10.20;;;6.00;;
10092;SDS011;5085;48.092;11.484;2022-11-12T19:22:10;11.90;;;5.40;;
10092;SDS011;5085;48.092;11.484;2022-11-12T19:24:54;12.98;;;6.70;;
10092;SDS011;5085;48.092;11.484;2022-11-12T19:27:39;10.25;;;5.88;;
10092;SDS011;5085;48.092;11.484;2022-11-12T19:30:23;11.57;;;6.72;;
10092;SDS011;5085;48.092;11.484;2022-11-12T19:33:08;10.07;;;6.05;;
10092;SDS011;5085;48.092;11.484;2022-11-12T19:35:52;10.77;;;6.32;;
10092;SDS011;5085;48.092;11.484;2022-11-12T19:38:37;13.13;;;7.05;;